createdAt,value
2022-11-04T00:02:05.398Z,12.50
2022-11-04T00:04:34.141Z,12.10
2022-11-04T00:07:23.484Z,11.32
2022-11-04T00:09:51.435Z,12.85
2022-11-04T00:12:27.254Z,12.68
2022-11-04T00:15:15.497Z,15.15
2022-11-04T00:17:42.392Z,14.93
2022-11-04T00:20:28.075Z,11.90
2022-11-04T00:23:14.828Z,14.30
2022-11-04T00:26:00.321Z,15.60
2022-11-04T00:28:54.327Z,15.48
2022-11-04T00:31:39.850Z,16.42
2022-11-04T00:34:07.933Z,15.95
2022-11-04T00:36:35.901Z,16.70
2022-11-04T00:39:05.203Z,17.38
2022-11-04T00:41:33.073Z,16.65
2022-11-04T00:44:03.122Z,19.70
2022-11-04T00:46:33.825Z,17.45
2022-11-04T00:49:02.183Z,19.60
2022-11-04T00:51:30.351Z,21.95
2022-11-04T00:53:59.083Z,19.70
2022-11-04T00:56:28.373Z,19.00
2022-11-04T00:58:56.588Z,18.67
2022-11-04T01:01:24.548Z,16.58
2022-11-04T01:03:54.246Z,18.52
2022-11-04T01:06:24.199Z,18.05
2022-11-04T01:08:56.847Z,17.08
2022-11-04T01:11:25.240Z,15.18
2022-11-04T01:13:54.813Z,16.30
2022-11-04T01:16:23.505Z,11.15
2022-11-04T01:18:51.685Z,12.98
2022-11-04T01:21:20.712Z,11.70
2022-11-04T01:23:49.004Z,9.93
2022-11-04T01:26:19.015Z,9.07
2022-11-04T01:28:47.569Z,6.55
2022-11-04T01:31:18.323Z,6.70
2022-11-04T01:33:46.277Z,8.40
2022-11-04T01:36:14.555Z,7.78
2022-11-04T01:38:42.757Z,8.15
2022-11-04T01:41:17.665Z,11.15
2022-11-04T01:43:49.473Z,12.43
2022-11-04T01:46:32.809Z,10.68
2022-11-04T01:49:05.454Z,17.40
2022-11-04T01:51:36.613Z,14.20
2022-11-04T01:54:07.183Z,14.95
2022-11-04T01:56:35.690Z,15.20
2022-11-04T01:59:07.914Z,13.77
2022-11-04T02:01:37.791Z,14.07
2022-11-04T02:04:20.953Z,11.70
2022-11-04T02:06:49.768Z,12.50
2022-11-04T02:09:19.368Z,14.45
2022-11-04T02:12:04.764Z,14.85
2022-11-04T02:14:33.904Z,14.75
2022-11-04T02:17:11.568Z,12.55
2022-11-04T02:20:02.689Z,13.82
2022-11-04T02:22:53.933Z,15.13
2022-11-04T02:25:41.921Z,15.57
2022-11-04T02:28:27.925Z,17.90
2022-11-04T02:31:04.315Z,18.90
2022-11-04T02:33:40.319Z,22.73
2022-11-04T02:36:16.074Z,24.45
2022-11-04T02:38:51.125Z,23.92
2022-11-04T02:41:27.437Z,23.73
2022-11-04T02:44:05.767Z,24.17
2022-11-04T02:46:38.921Z,21.95
2022-11-04T02:49:11.980Z,24.83
2022-11-04T02:51:45.866Z,24.25
2022-11-04T02:54:18.078Z,23.70
2022-11-04T02:56:50.829Z,24.73
2022-11-04T02:59:24.134Z,25.63
2022-11-04T03:01:55.370Z,26.42
2022-11-04T03:04:29.373Z,26.63
2022-11-04T03:07:00.093Z,26.48
2022-11-04T03:09:30.067Z,28.08
2022-11-04T03:12:03.432Z,26.27
2022-11-04T03:14:36.947Z,28.83
2022-11-04T03:17:09.397Z,29.15
2022-11-04T03:22:12.616Z,31.30
2022-11-04T03:24:41.524Z,32.22
2022-11-04T03:27:19.243Z,32.63
2022-11-04T03:29:53.984Z,31.98
2022-11-04T03:32:29.378Z,32.35
2022-11-04T03:34:57.469Z,33.50
2022-11-04T03:37:25.417Z,35.00
2022-11-04T03:39:53.297Z,34.17
2022-11-04T03:42:22.718Z,35.50
2022-11-04T03:44:52.386Z,34.03
2022-11-04T03:47:21.879Z,32.25
2022-11-04T03:49:53.430Z,32.33
2022-11-04T03:52:22.016Z,30.53
2022-11-04T03:54:50.112Z,32.97
2022-11-04T03:57:40.732Z,34.47
2022-11-04T04:00:12.641Z,34.47
2022-11-04T04:02:56.707Z,32.28
2022-11-04T04:05:31.833Z,30.80
2022-11-04T04:08:13.314Z,28.80
2022-11-04T04:10:48.942Z,30.50
2022-11-04T04:13:26.274Z,31.17
2022-11-04T04:15:59.990Z,28.90
2022-11-04T04:18:34.974Z,26.65
2022-11-04T04:21:08.481Z,26.73
2022-11-04T04:23:55.447Z,24.15
2022-11-04T04:26:43.048Z,21.35
2022-11-04T04:29:11.945Z,23.67
2022-11-04T04:31:50.595Z,22.45
2022-11-04T04:34:20.370Z,22.45
2022-11-04T04:36:53.712Z,21.65
2022-11-04T04:39:51.742Z,20.52
2022-11-04T04:42:38.201Z,21.67
2022-11-04T04:45:07.630Z,22.92
2022-11-04T04:47:43.512Z,23.35
2022-11-04T04:50:14.242Z,22.23
2022-11-04T04:52:46.097Z,22.33
2022-11-04T04:55:15.341Z,21.42
2022-11-04T04:57:43.441Z,20.52
2022-11-04T05:00:15.664Z,22.00
2022-11-04T05:02:43.835Z,23.52
2022-11-04T05:05:13.301Z,23.27
2022-11-04T05:07:41.328Z,20.98
2022-11-04T05:10:13.592Z,20.70
2022-11-04T05:13:00.123Z,21.55
2022-11-04T05:15:29.199Z,23.35
2022-11-04T05:17:58.514Z,21.10
2022-11-04T05:20:26.599Z,21.85
2022-11-04T05:22:56.067Z,21.52
2022-11-04T05:25:25.379Z,22.15
2022-11-04T05:27:53.304Z,18.70
2022-11-04T05:30:21.585Z,19.45
2022-11-04T05:32:49.457Z,21.63
2022-11-04T05:35:17.543Z,20.13
2022-11-04T05:37:45.772Z,20.67
2022-11-04T05:40:13.952Z,23.85
2022-11-04T05:42:43.168Z,24.15
2022-11-04T05:45:11.668Z,23.70
2022-11-04T05:47:39.628Z,23.85
2022-11-04T05:50:08.097Z,22.02
2022-11-04T05:52:36.005Z,22.15
2022-11-04T05:55:04.074Z,22.33
2022-11-04T05:57:31.960Z,24.15
2022-11-04T06:00:01.307Z,23.00
2022-11-04T06:02:29.294Z,22.08
2022-11-04T06:04:57.256Z,21.48
2022-11-04T06:07:25.104Z,20.52
2022-11-04T06:09:52.989Z,22.65
2022-11-04T06:12:20.849Z,22.85
2022-11-04T06:14:48.909Z,25.25
2022-11-04T06:17:20.186Z,25.30
2022-11-04T06:19:48.133Z,25.95
2022-11-04T06:22:17.580Z,24.02
2022-11-04T06:24:45.514Z,24.02
2022-11-04T06:27:13.999Z,26.55
2022-11-04T06:29:42.153Z,22.98
2022-11-04T06:32:10.819Z,21.70
2022-11-04T06:34:40.268Z,22.70
2022-11-04T06:37:08.421Z,22.17
2022-11-04T06:39:36.507Z,27.10
2022-11-04T06:42:04.903Z,27.05
2022-11-04T06:44:34.351Z,26.55
2022-11-04T06:47:02.841Z,27.00
2022-11-04T06:49:30.686Z,28.75
2022-11-04T06:52:01.220Z,27.63
2022-11-04T06:54:29.115Z,28.90
2022-11-04T06:56:57.002Z,28.88
2022-11-04T06:59:25.028Z,30.35
2022-11-04T07:01:53.262Z,33.70
2022-11-04T07:04:21.291Z,42.05
2022-11-04T07:06:49.346Z,44.72
2022-11-04T07:09:18.584Z,52.05
2022-11-04T07:11:46.752Z,49.20
2022-11-04T07:14:15.258Z,50.55
2022-11-04T07:16:43.128Z,54.10
2022-11-04T07:19:11.089Z,57.45
2022-11-04T07:21:38.991Z,51.63
2022-11-04T07:24:07.715Z,56.15
2022-11-04T07:26:36.936Z,56.08
2022-11-04T07:29:06.655Z,56.80
2022-11-04T07:31:34.576Z,57.33
2022-11-04T07:34:03.078Z,55.70
2022-11-04T07:36:31.453Z,55.25
2022-11-04T07:38:59.357Z,53.40
2022-11-04T07:41:27.260Z,54.38
2022-11-04T07:43:58.775Z,50.90
2022-11-04T07:46:26.741Z,53.67
2022-11-04T07:48:57.559Z,51.53
2022-11-04T07:51:25.924Z,49.40
2022-11-04T07:53:53.884Z,47.53
2022-11-04T07:56:23.956Z,45.83
2022-11-04T07:58:52.528Z,44.95
2022-11-04T08:01:23.802Z,43.80
2022-11-04T08:03:52.353Z,42.13
2022-11-04T08:06:22.091Z,40.80
2022-11-04T08:08:50.138Z,44.47
2022-11-04T08:11:20.684Z,45.03
2022-11-04T08:13:48.942Z,43.50
2022-11-04T08:16:19.080Z,42.42
2022-11-04T08:18:49.536Z,44.03
2022-11-04T08:21:17.835Z,49.00
2022-11-04T08:23:46.172Z,45.63
2022-11-04T08:26:16.657Z,40.28
2022-11-04T08:28:44.940Z,41.08
2022-11-04T08:31:16.648Z,43.80
2022-11-04T08:33:45.294Z,41.67
2022-11-04T08:36:17.724Z,39.58
2022-11-04T08:41:15.786Z,38.60
2022-11-04T08:43:43.757Z,36.22
2022-11-04T08:46:12.459Z,36.78
2022-11-04T08:48:41.415Z,38.50
2022-11-04T08:51:15.617Z,30.08
2022-11-04T08:53:44.004Z,33.45
2022-11-04T08:56:13.957Z,35.80
2022-11-04T08:58:42.418Z,20.98
2022-11-04T09:01:11.158Z,17.45
2022-11-04T09:03:39.943Z,18.38
2022-11-04T09:06:09.253Z,20.70
2022-11-04T09:08:39.337Z,22.48
2022-11-04T09:11:08.450Z,25.42
2022-11-04T09:13:39.594Z,18.35
2022-11-04T09:16:09.558Z,21.83
2022-11-04T09:18:37.485Z,25.42
2022-11-04T09:21:07.096Z,27.30
2022-11-04T09:23:34.992Z,16.45
2022-11-04T09:26:07.800Z,15.60
2022-11-04T09:28:35.673Z,16.25
2022-11-04T09:31:06.984Z,15.00
2022-11-04T09:33:34.904Z,16.33
2022-11-04T09:36:02.929Z,17.02
2022-11-04T09:38:31.089Z,18.05
2022-11-04T09:41:00.504Z,20.95
2022-11-04T09:43:38.616Z,20.63
2022-11-04T09:46:06.949Z,16.83
2022-11-04T09:48:40.052Z,16.33
2022-11-04T09:51:16.633Z,17.13
2022-11-04T09:53:58.744Z,17.65
2022-11-04T09:56:31.374Z,15.05
2022-11-04T09:59:00.692Z,12.80
2022-11-04T10:01:34.651Z,14.30
2022-11-04T10:04:18.299Z,13.20
2022-11-04T10:07:06.003Z,12.93
2022-11-04T10:09:48.183Z,12.15
2022-11-04T10:12:31.155Z,12.40
2022-11-04T10:15:34.193Z,16.38
2022-11-04T10:18:15.371Z,13.77
2022-11-04T10:20:53.732Z,12.10
2022-11-04T10:23:23.970Z,13.00
2022-11-04T10:25:59.444Z,10.10
2022-11-04T10:28:36.006Z,11.77
2022-11-04T10:31:06.592Z,10.02
2022-11-04T10:33:38.727Z,12.65
2022-11-04T10:36:08.673Z,11.50
2022-11-04T10:38:40.546Z,12.80
2022-11-04T10:43:44.720Z,13.55
2022-11-04T10:46:34.235Z,12.82
2022-11-04T10:49:21.034Z,13.05
2022-11-04T10:51:49.231Z,10.88
2022-11-04T10:54:17.219Z,13.15
2022-11-04T10:56:51.384Z,16.80
2022-11-04T10:59:25.666Z,16.98
2022-11-04T11:01:57.399Z,10.63
2022-11-04T11:04:28.478Z,13.35
2022-11-04T11:06:58.634Z,12.65
2022-11-04T11:09:29.941Z,8.82
2022-11-04T11:12:01.895Z,9.57
2022-11-04T11:14:35.709Z,11.43
2022-11-04T11:17:22.557Z,13.88
2022-11-04T11:19:55.848Z,13.93
2022-11-04T11:22:33.031Z,12.60
2022-11-04T11:25:23.183Z,9.45
2022-11-04T11:27:54.245Z,12.82
2022-11-04T11:30:31.910Z,12.25
2022-11-04T11:33:03.937Z,11.05
2022-11-04T11:35:41.434Z,5.28
2022-11-04T11:38:19.949Z,11.27
2022-11-04T11:41:10.870Z,9.13
2022-11-04T11:43:39.673Z,7.10
2022-11-04T11:46:08.026Z,7.10
2022-11-04T11:48:42.863Z,9.13
2022-11-04T11:51:14.008Z,6.68
2022-11-04T11:53:58.688Z,6.15
2022-11-04T11:56:58.754Z,7.85
2022-11-04T12:02:34.875Z,7.63
2022-11-04T12:10:56.067Z,5.35
2022-11-04T12:13:29.089Z,5.25
2022-11-04T12:16:18.388Z,4.93
2022-11-04T12:19:26.880Z,4.85
2022-11-04T12:22:03.739Z,9.88
2022-11-04T12:24:41.132Z,4.90
2022-11-04T12:27:18.032Z,5.07
2022-11-04T12:30:03.263Z,8.15
2022-11-04T12:32:41.295Z,4.68
2022-11-04T12:35:23.487Z,5.82
2022-11-04T12:38:04.063Z,8.00
2022-11-04T12:40:41.545Z,4.03
2022-11-04T12:43:21.447Z,3.88
2022-11-04T12:46:01.068Z,4.50
2022-11-04T12:48:57.396Z,5.28
2022-11-04T12:51:38.090Z,4.05
2022-11-04T12:54:32.915Z,3.22
2022-11-04T12:57:14.320Z,3.42
2022-11-04T12:59:54.580Z,3.92
2022-11-04T13:02:27.075Z,3.60
2022-11-04T13:05:03.141Z,3.70
2022-11-04T13:07:34.661Z,4.28
2022-11-04T13:10:07.645Z,3.87
2022-11-04T13:12:39.194Z,5.32
2022-11-04T13:15:16.540Z,5.85
2022-11-04T13:17:47.110Z,4.78
2022-11-04T13:20:23.039Z,8.20
2022-11-04T13:22:57.775Z,5.65
2022-11-04T13:25:34.843Z,5.57
2022-11-04T13:28:04.253Z,3.92
2022-11-04T13:30:38.495Z,6.43
2022-11-04T13:33:16.993Z,7.85
2022-11-04T13:35:56.029Z,5.65
2022-11-04T13:38:29.105Z,6.38
2022-11-04T13:41:16.158Z,5.88
2022-11-04T13:43:50.391Z,6.47
2022-11-04T13:46:24.807Z,5.78
2022-11-04T13:49:02.263Z,6.25
2022-11-04T13:51:40.562Z,7.72
2022-11-04T13:54:24.371Z,5.50
2022-11-04T13:57:05.613Z,8.07
2022-11-04T13:59:39.999Z,5.05
2022-11-04T14:02:42.397Z,6.72
2022-11-04T14:05:52.211Z,6.00
2022-11-04T14:08:20.489Z,6.82
2022-11-04T14:11:08.201Z,6.63
2022-11-04T14:14:02.652Z,5.82
2022-11-04T14:16:46.110Z,4.97
2022-11-04T14:19:59.452Z,6.28
2022-11-04T14:22:36.413Z,6.35
2022-11-04T14:25:21.476Z,5.93
2022-11-04T14:27:50.905Z,5.97
2022-11-04T14:30:35.353Z,6.47
2022-11-04T14:33:06.776Z,6.43
2022-11-04T14:35:35.484Z,6.53
2022-11-04T14:38:15.549Z,6.15
2022-11-04T14:40:50.867Z,6.10
2022-11-04T14:43:30.084Z,7.60
2022-11-04T14:46:02.100Z,6.50
2022-11-04T14:48:31.342Z,7.13
2022-11-04T14:50:59.670Z,8.35
2022-11-04T14:53:31.948Z,7.18
2022-11-04T14:58:34.963Z,6.15
2022-11-04T15:01:05.171Z,6.75
2022-11-04T15:06:40.352Z,5.72
2022-11-04T15:09:21.717Z,8.32
2022-11-04T15:12:07.053Z,8.05
2022-11-04T15:14:38.055Z,6.97
2022-11-04T15:17:07.794Z,6.07
2022-11-04T15:19:36.954Z,6.53
2022-11-04T15:22:07.424Z,8.20
2022-11-04T15:24:36.523Z,7.85
2022-11-04T15:27:07.249Z,7.35
2022-11-04T15:29:35.357Z,9.07
2022-11-04T15:32:06.332Z,9.30
2022-11-04T15:34:37.243Z,7.13
2022-11-04T15:37:07.043Z,10.35
2022-11-04T15:39:38.811Z,7.22
2022-11-04T15:42:29.699Z,8.98
2022-11-04T15:44:57.692Z,8.95
2022-11-04T15:47:28.481Z,11.05
2022-11-04T15:50:16.486Z,6.97
2022-11-04T15:52:51.607Z,9.75
2022-11-04T15:55:22.284Z,7.35
2022-11-04T15:57:51.737Z,7.85
2022-11-04T16:00:25.884Z,8.13
2022-11-04T16:02:56.380Z,10.27
2022-11-04T16:05:28.636Z,10.88
2022-11-04T16:08:14.825Z,10.32
2022-11-04T16:10:43.984Z,7.78
2022-11-04T16:13:23.868Z,10.57
2022-11-04T16:16:09.495Z,10.05
2022-11-04T16:18:39.834Z,6.65
2022-11-04T16:21:12.270Z,8.32
2022-11-04T16:26:13.129Z,9.33
2022-11-04T16:28:42.741Z,9.88
2022-11-04T16:31:26.285Z,6.05
2022-11-04T16:33:54.306Z,6.68
2022-11-04T16:36:34.020Z,8.70
2022-11-04T16:39:10.910Z,8.55
2022-11-04T16:41:41.216Z,10.32
2022-11-04T16:44:19.385Z,7.18
2022-11-04T16:46:47.802Z,9.45
2022-11-04T16:49:16.852Z,7.75
2022-11-04T16:51:46.627Z,8.88
2022-11-04T16:54:14.628Z,7.70
2022-11-04T16:56:42.598Z,9.32
2022-11-04T16:59:12.635Z,8.52
2022-11-04T17:01:41.870Z,9.07
2022-11-04T17:04:10.594Z,9.20
2022-11-04T17:06:39.376Z,9.32
2022-11-04T17:09:18.676Z,10.18
2022-11-04T17:11:46.870Z,10.32
2022-11-04T17:14:16.456Z,7.85
2022-11-04T17:16:44.901Z,11.35
2022-11-04T17:19:16.905Z,8.73
2022-11-04T17:21:45.856Z,10.30
2022-11-04T17:24:15.600Z,12.38
2022-11-04T17:26:43.688Z,9.48
2022-11-04T17:29:16.002Z,10.05
2022-11-04T17:31:45.366Z,13.02
2022-11-04T17:34:13.502Z,12.38
2022-11-04T17:36:41.529Z,11.70
2022-11-04T17:39:09.870Z,10.60
2022-11-04T17:41:56.893Z,10.45
2022-11-04T17:44:24.856Z,8.88
2022-11-04T17:46:53.069Z,8.82
2022-11-04T17:49:22.995Z,8.35
2022-11-04T17:51:53.831Z,8.55
2022-11-04T17:54:22.455Z,8.07
2022-11-04T17:56:52.524Z,8.30
2022-11-04T17:59:20.731Z,12.55
2022-11-04T18:01:49.286Z,7.18
2022-11-04T18:04:19.835Z,11.05
2022-11-04T18:06:47.983Z,8.73
2022-11-04T18:09:16.568Z,9.27
2022-11-04T18:12:02.996Z,9.18
2022-11-04T18:14:33.178Z,7.75
2022-11-04T18:17:01.115Z,9.25
2022-11-04T18:19:29.715Z,11.35
2022-11-04T18:21:57.666Z,10.80
2022-11-04T18:24:25.964Z,9.90
2022-11-04T18:26:54.256Z,10.95
2022-11-04T18:29:22.959Z,14.13
2022-11-04T18:31:52.236Z,10.85
2022-11-04T18:34:20.420Z,11.82
2022-11-04T18:36:49.121Z,11.30
2022-11-04T18:39:18.911Z,10.40
2022-11-04T18:41:47.526Z,10.98
2022-11-04T18:44:18.022Z,8.98
2022-11-04T18:46:46.543Z,11.52
2022-11-04T18:49:16.873Z,10.18
2022-11-04T18:51:45.230Z,9.73
2022-11-04T18:54:14.765Z,9.95
2022-11-04T18:56:43.857Z,10.65
2022-11-04T18:59:13.458Z,13.27
2022-11-04T19:01:42.340Z,14.95
2022-11-04T19:04:10.716Z,16.08
2022-11-04T19:06:44.932Z,15.38
2022-11-04T19:12:20.356Z,12.32
2022-11-04T19:14:49.219Z,11.73
2022-11-04T19:17:17.469Z,11.48
2022-11-04T19:19:45.953Z,13.88
2022-11-04T19:22:15.436Z,13.15
2022-11-04T19:24:43.789Z,13.50
2022-11-04T19:27:11.891Z,11.80
2022-11-04T19:29:39.976Z,11.57
2022-11-04T19:32:13.794Z,9.63
2022-11-04T19:34:42.198Z,9.75
2022-11-04T19:37:10.800Z,9.85
2022-11-04T19:39:40.641Z,9.40
2022-11-04T19:42:26.500Z,11.23
2022-11-04T19:44:54.412Z,11.13
2022-11-04T19:47:22.372Z,10.20
2022-11-04T19:49:50.344Z,16.58
2022-11-04T19:52:18.560Z,14.20
2022-11-04T19:54:47.995Z,14.93
2022-11-04T19:57:16.407Z,18.15
2022-11-04T19:59:44.493Z,18.15
2022-11-04T20:02:15.243Z,18.08
2022-11-04T20:04:43.397Z,20.42
2022-11-04T20:07:11.300Z,18.50
2022-11-04T20:09:39.548Z,21.15
2022-11-04T20:12:26.363Z,20.05
2022-11-04T20:14:56.149Z,20.40
2022-11-04T20:17:24.644Z,20.83
2022-11-04T20:19:52.759Z,21.35
2022-11-04T20:22:20.721Z,21.23
2022-11-04T20:24:48.584Z,20.95
2022-11-04T20:27:18.349Z,19.30
2022-11-04T20:29:46.425Z,18.80
2022-11-04T20:32:14.695Z,18.83
2022-11-04T20:34:42.688Z,18.30
2022-11-04T20:37:12.454Z,17.95
2022-11-04T20:39:40.488Z,17.05
2022-11-04T20:42:08.689Z,17.13
2022-11-04T20:44:37.979Z,17.88
2022-11-04T20:47:05.950Z,18.83
2022-11-04T20:49:33.866Z,18.73
2022-11-04T20:52:01.787Z,20.55
2022-11-04T20:54:29.739Z,18.70
2022-11-04T20:56:58.035Z,19.95
2022-11-04T20:59:25.903Z,20.60
2022-11-04T21:01:55.322Z,21.25
2022-11-04T21:04:23.374Z,21.55
2022-11-04T21:06:52.470Z,21.73
2022-11-04T21:09:22.259Z,22.08
2022-11-04T21:11:51.282Z,22.15
2022-11-04T21:14:20.283Z,22.42
2022-11-04T21:16:48.679Z,21.98
2022-11-04T21:19:19.068Z,23.85
2022-11-04T21:21:47.865Z,24.25
2022-11-04T21:24:19.702Z,22.92
2022-11-04T21:26:47.714Z,26.15
2022-11-04T21:29:19.341Z,23.88
2022-11-04T21:31:49.365Z,26.97
2022-11-04T21:34:18.761Z,26.02
2022-11-04T21:36:46.809Z,27.08
2022-11-04T21:39:14.914Z,23.63
2022-11-04T21:41:42.912Z,23.63
2022-11-04T21:44:13.484Z,21.60
2022-11-04T21:46:42.368Z,22.30
2022-11-04T21:49:12.712Z,21.35
2022-11-04T21:51:42.107Z,19.98
2022-11-04T21:54:10.344Z,20.73
2022-11-04T21:56:38.357Z,23.40
2022-11-04T21:59:06.692Z,22.67
2022-11-04T22:01:34.854Z,20.20
2022-11-04T22:04:03.626Z,21.70
2022-11-04T22:06:35.200Z,21.15
2022-11-04T22:09:07.945Z,19.23
2022-11-04T22:11:39.330Z,19.13
2022-11-04T22:14:09.300Z,19.60
2022-11-04T22:16:39.076Z,19.42
2022-11-04T22:19:10.493Z,18.52
2022-11-04T22:21:40.433Z,17.58
2022-11-04T22:24:12.435Z,18.17
2022-11-04T22:26:41.071Z,18.35
2022-11-04T22:29:09.530Z,19.67
2022-11-04T22:31:40.635Z,18.10
2022-11-04T22:34:09.887Z,19.02
2022-11-04T22:36:38.017Z,20.02
2022-11-04T22:39:10.484Z,19.10
2022-11-04T22:41:43.429Z,18.73
2022-11-04T22:44:11.640Z,19.80
2022-11-04T22:46:40.088Z,19.35
2022-11-04T22:49:08.495Z,19.48
2022-11-04T22:51:36.480Z,18.02
2022-11-04T22:54:08.241Z,19.35
2022-11-04T22:56:36.807Z,21.15
2022-11-04T22:59:06.475Z,18.20
2022-11-04T23:01:34.601Z,17.38
2022-11-04T23:04:03.064Z,18.83
2022-11-04T23:06:31.252Z,19.20
2022-11-04T23:09:00.679Z,18.92
2022-11-04T23:11:48.063Z,19.15
2022-11-04T23:14:37.131Z,17.63
2022-11-04T23:17:29.723Z,18.88
2022-11-04T23:19:57.617Z,18.58
2022-11-04T23:22:43.207Z,18.67
2022-11-04T23:25:11.739Z,18.13
2022-11-04T23:27:58.964Z,17.30
2022-11-04T23:30:30.731Z,16.45
2022-11-04T23:33:00.184Z,16.83
2022-11-04T23:35:47.073Z,15.90
2022-11-04T23:38:15.456Z,16.27
2022-11-04T23:41:04.076Z,18.95
2022-11-04T23:43:32.296Z,20.90
2022-11-04T23:46:19.420Z,19.20
2022-11-04T23:49:05.129Z,18.58
2022-11-04T23:51:50.656Z,17.95
2022-11-04T23:54:36.359Z,18.25
2022-11-04T23:57:22.628Z,17.50
